sensor_id;sensor_type;location;lat;lon;timestamp;P1;durP1;ratioP1;P2;durP2;ratioP2
15567;SDS011;7885;42.596;23.044;2023-05-07T00:00:34;15.23;;;7.70;;
15567;SDS011;7885;42.596;23.044;2023-05-07T00:03:01;12.50;;;7.63;;
15567;SDS011;7885;42.596;23.044;2023-05-07T00:05:28;9.67;;;5.97;;
15567;SDS011;7885;42.596;23.044;2023-05-07T00:07:55;8.93;;;5.50;;
15567;SDS011;7885;42.596;23.044;2023-05-07T00:10:22;9.03;;;5.87;;
15567;SDS011;7885;42.596;23.044;2023-05-07T00:12:49;9.43;;;6.40;;
15567;SDS011;7885;42.596;23.044;2023-05-07T00:15:17;9.10;;;6.47;;
15567;SDS011;7885;42.596;23.044;2023-05-07T00:17:43;11.23;;;6.93;;
15567;SDS011;7885;42.596;23.044;2023-05-07T00:20:11;10.80;;;7.23;;
15567;SDS011;7885;42.596;23.044;2023-05-07T00:22:38;12.67;;;7.93;;
15567;SDS011;7885;42.596;23.044;2023-05-07T00:25:05;10.27;;;7.43;;
15567;SDS011;7885;42.596;23.044;2023-05-07T00:27:32;7.77;;;6.73;;
15567;SDS011;7885;42.596;23.044;2023-05-07T00:29:59;11.37;;;8.17;;
15567;SDS011;7885;42.596;23.044;2023-05-07T00:32:27;13.17;;;7.33;;
15567;SDS011;7885;42.596;23.044;2023-05-07T00:34:53;9.00;;;7.17;;
15567;SDS011;7885;42.596;23.044;2023-05-07T00:37:20;13.10;;;8.50;;
15567;SDS011;7885;42.596;23.044;2023-05-07T00:39:47;9.37;;;7.27;;
15567;SDS011;7885;42.596;23.044;2023-05-07T00:42:14;9.17;;;7.17;;
15567;SDS011;7885;42.596;23.044;2023-05-07T00:44:41;9.47;;;7.40;;
15567;SDS011;7885;42.596;23.044;2023-05-07T00:47:07;13.10;;;8.97;;
15567;SDS011;7885;42.596;23.044;2023-05-07T00:49:37;10.80;;;8.10;;
15567;SDS011;7885;42.596;23.044;2023-05-07T00:52:06;11.27;;;8.17;;
15567;SDS011;7885;42.596;23.044;2023-05-07T00:54:33;13.57;;;7.50;;
15567;SDS011;7885;42.596;23.044;2023-05-07T00:57:01;14.20;;;7.40;;
15567;SDS011;7885;42.596;23.044;2023-05-07T00:59:29;14.07;;;6.90;;
15567;SDS011;7885;42.596;23.044;2023-05-07T01:01:56;10.30;;;6.30;;
15567;SDS011;7885;42.596;23.044;2023-05-07T01:04:23;9.00;;;6.30;;
15567;SDS011;7885;42.596;23.044;2023-05-07T01:06:51;10.93;;;7.17;;
15567;SDS011;7885;42.596;23.044;2023-05-07T01:09:20;9.67;;;7.40;;
15567;SDS011;7885;42.596;23.044;2023-05-07T01:11:48;12.70;;;7.97;;
15567;SDS011;7885;42.596;23.044;2023-05-07T01:14:16;11.07;;;8.33;;
15567;SDS011;7885;42.596;23.044;2023-05-07T01:16:44;10.13;;;8.30;;
15567;SDS011;7885;42.596;23.044;2023-05-07T01:19:11;15.57;;;8.63;;
15567;SDS011;7885;42.596;23.044;2023-05-07T01:21:41;12.10;;;8.83;;
15567;SDS011;7885;42.596;23.044;2023-05-07T01:24:13;11.37;;;8.83;;
15567;SDS011;7885;42.596;23.044;2023-05-07T01:26:41;15.00;;;9.20;;
15567;SDS011;7885;42.596;23.044;2023-05-07T01:29:08;13.27;;;8.30;;
15567;SDS011;7885;42.596;23.044;2023-05-07T01:31:35;10.37;;;8.13;;
15567;SDS011;7885;42.596;23.044;2023-05-07T01:34:03;9.50;;;7.70;;
15567;SDS011;7885;42.596;23.044;2023-05-07T01:36:33;14.07;;;7.07;;
15567;SDS011;7885;42.596;23.044;2023-05-07T01:39:03;10.13;;;7.17;;
15567;SDS011;7885;42.596;23.044;2023-05-07T01:41:32;10.07;;;7.03;;
15567;SDS011;7885;42.596;23.044;2023-05-07T01:43:58;7.83;;;7.03;;
15567;SDS011;7885;42.596;23.044;2023-05-07T01:46:26;10.77;;;7.87;;
15567;SDS011;7885;42.596;23.044;2023-05-07T01:48:53;13.33;;;8.30;;
15567;SDS011;7885;42.596;23.044;2023-05-07T01:51:21;12.23;;;8.10;;
15567;SDS011;7885;42.596;23.044;2023-05-07T01:53:48;12.17;;;8.30;;
15567;SDS011;7885;42.596;23.044;2023-05-07T01:56:16;10.97;;;7.93;;
15567;SDS011;7885;42.596;23.044;2023-05-07T01:58:44;11.40;;;8.13;;
15567;SDS011;7885;42.596;23.044;2023-05-07T02:01:12;15.50;;;9.37;;
15567;SDS011;7885;42.596;23.044;2023-05-07T02:03:39;11.53;;;9.50;;
15567;SDS011;7885;42.596;23.044;2023-05-07T02:06:06;13.20;;;8.53;;
15567;SDS011;7885;42.596;23.044;2023-05-07T02:08:33;14.20;;;9.90;;
15567;SDS011;7885;42.596;23.044;2023-05-07T02:10:59;18.60;;;10.90;;
15567;SDS011;7885;42.596;23.044;2023-05-07T02:13:28;15.67;;;9.73;;
15567;SDS011;7885;42.596;23.044;2023-05-07T02:15:57;13.93;;;9.53;;
15567;SDS011;7885;42.596;23.044;2023-05-07T02:18:24;15.87;;;10.20;;
15567;SDS011;7885;42.596;23.044;2023-05-07T02:20:50;13.73;;;8.53;;
15567;SDS011;7885;42.596;23.044;2023-05-07T02:23:17;13.67;;;8.73;;
15567;SDS011;7885;42.596;23.044;2023-05-07T02:25:44;13.07;;;8.20;;
15567;SDS011;7885;42.596;23.044;2023-05-07T02:28:11;15.30;;;9.77;;
15567;SDS011;7885;42.596;23.044;2023-05-07T02:30:37;16.40;;;8.93;;
15567;SDS011;7885;42.596;23.044;2023-05-07T02:33:06;12.40;;;8.80;;
15567;SDS011;7885;42.596;23.044;2023-05-07T02:35:33;11.57;;;7.90;;
15567;SDS011;7885;42.596;23.044;2023-05-07T02:38:00;11.33;;;7.40;;
15567;SDS011;7885;42.596;23.044;2023-05-07T02:40:27;9.20;;;6.97;;
15567;SDS011;7885;42.596;23.044;2023-05-07T02:42:53;11.10;;;7.27;;
15567;SDS011;7885;42.596;23.044;2023-05-07T02:45:20;9.63;;;7.53;;
15567;SDS011;7885;42.596;23.044;2023-05-07T02:47:47;11.83;;;7.30;;
15567;SDS011;7885;42.596;23.044;2023-05-07T02:50:15;10.97;;;7.77;;
15567;SDS011;7885;42.596;23.044;2023-05-07T02:52:42;16.37;;;9.00;;
15567;SDS011;7885;42.596;23.044;2023-05-07T02:55:09;14.63;;;8.83;;
15567;SDS011;7885;42.596;23.044;2023-05-07T02:57:35;15.87;;;8.67;;
15567;SDS011;7885;42.596;23.044;2023-05-07T03:00:09;14.50;;;10.27;;
15567;SDS011;7885;42.596;23.044;2023-05-07T03:02:37;22.30;;;12.47;;
15567;SDS011;7885;42.596;23.044;2023-05-07T03:05:05;11.30;;;9.70;;
15567;SDS011;7885;42.596;23.044;2023-05-07T03:07:34;14.53;;;9.60;;
15567;SDS011;7885;42.596;23.044;2023-05-07T03:10:01;15.30;;;9.73;;
15567;SDS011;7885;42.596;23.044;2023-05-07T03:12:28;9.50;;;7.17;;
15567;SDS011;7885;42.596;23.044;2023-05-07T03:14:54;9.63;;;7.60;;
15567;SDS011;7885;42.596;23.044;2023-05-07T03:17:21;9.97;;;7.57;;
15567;SDS011;7885;42.596;23.044;2023-05-07T03:19:48;9.93;;;7.37;;
15567;SDS011;7885;42.596;23.044;2023-05-07T03:22:15;11.20;;;8.53;;
15567;SDS011;7885;42.596;23.044;2023-05-07T03:24:43;11.17;;;7.70;;
15567;SDS011;7885;42.596;23.044;2023-05-07T03:27:10;8.87;;;6.80;;
15567;SDS011;7885;42.596;23.044;2023-05-07T03:29:36;12.70;;;7.93;;
15567;SDS011;7885;42.596;23.044;2023-05-07T03:32:03;10.33;;;7.07;;
15567;SDS011;7885;42.596;23.044;2023-05-07T03:34:31;8.93;;;6.77;;
15567;SDS011;7885;42.596;23.044;2023-05-07T03:36:57;14.97;;;8.90;;
15567;SDS011;7885;42.596;23.044;2023-05-07T03:39:24;13.13;;;9.00;;
15567;SDS011;7885;42.596;23.044;2023-05-07T03:41:52;11.70;;;8.97;;
15567;SDS011;7885;42.596;23.044;2023-05-07T03:44:19;14.33;;;9.33;;
15567;SDS011;7885;42.596;23.044;2023-05-07T03:46:46;16.13;;;10.77;;
15567;SDS011;7885;42.596;23.044;2023-05-07T03:49:12;11.83;;;8.77;;
15567;SDS011;7885;42.596;23.044;2023-05-07T03:51:39;12.83;;;9.00;;
15567;SDS011;7885;42.596;23.044;2023-05-07T03:54:06;14.60;;;9.53;;
15567;SDS011;7885;42.596;23.044;2023-05-07T03:56:32;16.77;;;10.40;;
15567;SDS011;7885;42.596;23.044;2023-05-07T03:59:01;11.50;;;9.80;;
15567;SDS011;7885;42.596;23.044;2023-05-07T04:01:28;11.97;;;9.37;;
15567;SDS011;7885;42.596;23.044;2023-05-07T04:03:55;19.10;;;9.97;;
15567;SDS011;7885;42.596;23.044;2023-05-07T04:06:21;13.67;;;10.00;;
15567;SDS011;7885;42.596;23.044;2023-05-07T04:08:48;13.90;;;8.90;;
15567;SDS011;7885;42.596;23.044;2023-05-07T04:11:15;14.73;;;9.37;;
15567;SDS011;7885;42.596;23.044;2023-05-07T04:13:41;9.53;;;8.00;;
15567;SDS011;7885;42.596;23.044;2023-05-07T04:16:09;14.93;;;9.30;;
15567;SDS011;7885;42.596;23.044;2023-05-07T04:18:36;16.97;;;9.23;;
15567;SDS011;7885;42.596;23.044;2023-05-07T04:21:03;14.97;;;9.80;;
15567;SDS011;7885;42.596;23.044;2023-05-07T04:23:30;14.27;;;9.43;;
15567;SDS011;7885;42.596;23.044;2023-05-07T04:25:56;11.93;;;9.80;;
15567;SDS011;7885;42.596;23.044;2023-05-07T04:28:23;15.10;;;9.20;;
15567;SDS011;7885;42.596;23.044;2023-05-07T04:30:50;13.73;;;10.03;;
15567;SDS011;7885;42.596;23.044;2023-05-07T04:33:18;13.53;;;10.10;;
15567;SDS011;7885;42.596;23.044;2023-05-07T04:35:45;13.03;;;10.17;;
15567;SDS011;7885;42.596;23.044;2023-05-07T04:38:12;13.23;;;10.50;;
15567;SDS011;7885;42.596;23.044;2023-05-07T04:40:39;12.23;;;9.97;;
15567;SDS011;7885;42.596;23.044;2023-05-07T04:43:06;15.03;;;10.00;;
15567;SDS011;7885;42.596;23.044;2023-05-07T04:45:34;11.80;;;10.03;;
15567;SDS011;7885;42.596;23.044;2023-05-07T04:48:00;16.30;;;10.23;;
15567;SDS011;7885;42.596;23.044;2023-05-07T04:50:28;21.33;;;13.60;;
15567;SDS011;7885;42.596;23.044;2023-05-07T04:52:55;16.83;;;12.40;;
15567;SDS011;7885;42.596;23.044;2023-05-07T04:55:22;19.43;;;13.50;;
15567;SDS011;7885;42.596;23.044;2023-05-07T04:57:48;16.70;;;12.10;;
15567;SDS011;7885;42.596;23.044;2023-05-07T05:00:15;14.07;;;11.33;;
15567;SDS011;7885;42.596;23.044;2023-05-07T05:02:44;14.30;;;10.87;;
15567;SDS011;7885;42.596;23.044;2023-05-07T05:05:11;11.90;;;9.93;;
15567;SDS011;7885;42.596;23.044;2023-05-07T05:07:39;15.33;;;10.73;;
15567;SDS011;7885;42.596;23.044;2023-05-07T05:10:06;14.27;;;10.13;;
15567;SDS011;7885;42.596;23.044;2023-05-07T05:12:33;14.97;;;9.73;;
15567;SDS011;7885;42.596;23.044;2023-05-07T05:14:59;12.50;;;9.67;;
15567;SDS011;7885;42.596;23.044;2023-05-07T05:17:26;13.53;;;9.30;;
15567;SDS011;7885;42.596;23.044;2023-05-07T05:19:53;13.17;;;9.77;;
15567;SDS011;7885;42.596;23.044;2023-05-07T05:22:19;14.10;;;9.33;;
15567;SDS011;7885;42.596;23.044;2023-05-07T05:24:47;13.13;;;10.27;;
15567;SDS011;7885;42.596;23.044;2023-05-07T05:27:14;15.57;;;10.17;;
15567;SDS011;7885;42.596;23.044;2023-05-07T05:29:41;12.47;;;9.93;;
15567;SDS011;7885;42.596;23.044;2023-05-07T05:32:07;11.53;;;10.10;;
15567;SDS011;7885;42.596;23.044;2023-05-07T05:34:35;16.00;;;11.00;;
15567;SDS011;7885;42.596;23.044;2023-05-07T05:37:01;18.30;;;10.87;;
15567;SDS011;7885;42.596;23.044;2023-05-07T05:39:28;14.47;;;10.50;;
15567;SDS011;7885;42.596;23.044;2023-05-07T05:41:57;16.00;;;9.83;;
15567;SDS011;7885;42.596;23.044;2023-05-07T05:44:23;14.10;;;10.47;;
15567;SDS011;7885;42.596;23.044;2023-05-07T05:46:50;15.47;;;10.97;;
15567;SDS011;7885;42.596;23.044;2023-05-07T05:49:19;11.57;;;10.37;;
15567;SDS011;7885;42.596;23.044;2023-05-07T05:51:46;15.43;;;9.90;;
15567;SDS011;7885;42.596;23.044;2023-05-07T05:54:13;14.60;;;10.30;;
15567;SDS011;7885;42.596;23.044;2023-05-07T05:56:40;15.97;;;10.53;;
15567;SDS011;7885;42.596;23.044;2023-05-07T05:59:09;13.53;;;10.03;;
15567;SDS011;7885;42.596;23.044;2023-05-07T06:01:36;13.30;;;9.73;;
15567;SDS011;7885;42.596;23.044;2023-05-07T06:04:03;12.27;;;10.27;;
15567;SDS011;7885;42.596;23.044;2023-05-07T06:06:30;13.40;;;9.73;;
15567;SDS011;7885;42.596;23.044;2023-05-07T06:08:57;15.77;;;9.50;;
15567;SDS011;7885;42.596;23.044;2023-05-07T06:11:24;15.37;;;9.47;;
15567;SDS011;7885;42.596;23.044;2023-05-07T06:13:51;13.43;;;10.63;;
15567;SDS011;7885;42.596;23.044;2023-05-07T06:16:19;13.93;;;10.27;;
15567;SDS011;7885;42.596;23.044;2023-05-07T06:18:45;15.83;;;9.90;;
15567;SDS011;7885;42.596;23.044;2023-05-07T06:21:13;13.67;;;9.90;;
15567;SDS011;7885;42.596;23.044;2023-05-07T06:23:40;13.97;;;10.10;;
15567;SDS011;7885;42.596;23.044;2023-05-07T06:26:07;13.30;;;9.93;;
15567;SDS011;7885;42.596;23.044;2023-05-07T06:28:33;13.57;;;9.77;;
15567;SDS011;7885;42.596;23.044;2023-05-07T06:31:10;10.50;;;8.50;;
15567;SDS011;7885;42.596;23.044;2023-05-07T06:33:39;11.83;;;8.67;;
15567;SDS011;7885;42.596;23.044;2023-05-07T06:36:06;9.60;;;8.07;;
15567;SDS011;7885;42.596;23.044;2023-05-07T06:38:33;12.97;;;8.07;;
15567;SDS011;7885;42.596;23.044;2023-05-07T06:41:00;10.13;;;7.77;;
15567;SDS011;7885;42.596;23.044;2023-05-07T06:43:26;9.17;;;6.13;;
15567;SDS011;7885;42.596;23.044;2023-05-07T06:45:53;8.53;;;6.23;;
15567;SDS011;7885;42.596;23.044;2023-05-07T06:48:20;9.07;;;6.77;;
15567;SDS011;7885;42.596;23.044;2023-05-07T06:50:48;8.07;;;6.43;;
15567;SDS011;7885;42.596;23.044;2023-05-07T06:53:14;9.77;;;7.13;;
15567;SDS011;7885;42.596;23.044;2023-05-07T06:55:41;9.93;;;6.53;;
15567;SDS011;7885;42.596;23.044;2023-05-07T06:58:08;9.50;;;6.30;;
15567;SDS011;7885;42.596;23.044;2023-05-07T07:00:34;13.37;;;6.50;;
15567;SDS011;7885;42.596;23.044;2023-05-07T07:03:01;7.47;;;6.07;;
15567;SDS011;7885;42.596;23.044;2023-05-07T07:05:28;7.13;;;5.80;;
15567;SDS011;7885;42.596;23.044;2023-05-07T07:07:56;10.07;;;6.13;;
15567;SDS011;7885;42.596;23.044;2023-05-07T07:10:23;8.00;;;6.43;;
15567;SDS011;7885;42.596;23.044;2023-05-07T07:12:50;8.50;;;6.20;;
15567;SDS011;7885;42.596;23.044;2023-05-07T07:15:17;8.97;;;6.23;;
15567;SDS011;7885;42.596;23.044;2023-05-07T07:17:45;7.73;;;6.17;;
15567;SDS011;7885;42.596;23.044;2023-05-07T07:20:12;7.63;;;6.43;;
15567;SDS011;7885;42.596;23.044;2023-05-07T07:22:39;10.30;;;6.07;;
15567;SDS011;7885;42.596;23.044;2023-05-07T07:25:08;8.70;;;7.00;;
15567;SDS011;7885;42.596;23.044;2023-05-07T07:27:36;8.90;;;5.50;;
15567;SDS011;7885;42.596;23.044;2023-05-07T07:30:03;7.40;;;5.93;;
15567;SDS011;7885;42.596;23.044;2023-05-07T07:32:34;6.57;;;5.77;;
15567;SDS011;7885;42.596;23.044;2023-05-07T07:35:00;6.47;;;5.47;;
15567;SDS011;7885;42.596;23.044;2023-05-07T07:37:27;8.80;;;6.27;;
15567;SDS011;7885;42.596;23.044;2023-05-07T07:39:55;8.53;;;5.97;;
15567;SDS011;7885;42.596;23.044;2023-05-07T07:42:23;6.10;;;5.27;;
15567;SDS011;7885;42.596;23.044;2023-05-07T07:44:49;5.60;;;4.80;;
15567;SDS011;7885;42.596;23.044;2023-05-07T07:47:16;7.93;;;4.90;;
15567;SDS011;7885;42.596;23.044;2023-05-07T07:49:43;5.37;;;4.87;;
15567;SDS011;7885;42.596;23.044;2023-05-07T07:52:10;7.00;;;5.17;;
15567;SDS011;7885;42.596;23.044;2023-05-07T07:54:36;10.27;;;5.27;;
15567;SDS011;7885;42.596;23.044;2023-05-07T07:57:03;7.37;;;4.63;;
15567;SDS011;7885;42.596;23.044;2023-05-07T07:59:31;6.07;;;4.30;;
15567;SDS011;7885;42.596;23.044;2023-05-07T08:01:58;6.33;;;4.23;;
15567;SDS011;7885;42.596;23.044;2023-05-07T08:04:24;9.77;;;4.40;;
15567;SDS011;7885;42.596;23.044;2023-05-07T08:06:51;6.50;;;4.90;;
15567;SDS011;7885;42.596;23.044;2023-05-07T08:09:19;9.07;;;5.20;;
15567;SDS011;7885;42.596;23.044;2023-05-07T08:11:46;8.33;;;4.57;;
15567;SDS011;7885;42.596;23.044;2023-05-07T08:14:13;8.00;;;5.43;;
15567;SDS011;7885;42.596;23.044;2023-05-07T08:16:42;6.70;;;5.00;;
15567;SDS011;7885;42.596;23.044;2023-05-07T08:19:08;5.87;;;5.10;;
15567;SDS011;7885;42.596;23.044;2023-05-07T08:21:38;9.10;;;5.23;;
15567;SDS011;7885;42.596;23.044;2023-05-07T08:24:05;6.13;;;4.67;;
15567;SDS011;7885;42.596;23.044;2023-05-07T08:26:32;5.67;;;5.00;;
15567;SDS011;7885;42.596;23.044;2023-05-07T08:28:58;9.10;;;4.83;;
15567;SDS011;7885;42.596;23.044;2023-05-07T08:31:25;9.90;;;5.23;;
15567;SDS011;7885;42.596;23.044;2023-05-07T08:33:53;7.17;;;4.67;;
15567;SDS011;7885;42.596;23.044;2023-05-07T08:36:20;6.60;;;4.63;;
15567;SDS011;7885;42.596;23.044;2023-05-07T08:38:46;5.33;;;4.83;;
15567;SDS011;7885;42.596;23.044;2023-05-07T08:41:15;5.60;;;5.00;;
15567;SDS011;7885;42.596;23.044;2023-05-07T08:43:41;7.40;;;4.93;;
15567;SDS011;7885;42.596;23.044;2023-05-07T08:46:15;7.27;;;5.33;;
15567;SDS011;7885;42.596;23.044;2023-05-07T08:48:44;6.83;;;4.43;;
15567;SDS011;7885;42.596;23.044;2023-05-07T08:51:13;6.13;;;4.60;;
15567;SDS011;7885;42.596;23.044;2023-05-07T08:53:42;7.30;;;4.50;;
15567;SDS011;7885;42.596;23.044;2023-05-07T08:56:09;9.50;;;4.33;;
15567;SDS011;7885;42.596;23.044;2023-05-07T08:58:36;4.73;;;4.20;;
15567;SDS011;7885;42.596;23.044;2023-05-07T09:01:03;5.53;;;4.80;;
15567;SDS011;7885;42.596;23.044;2023-05-07T09:03:33;5.50;;;4.47;;
15567;SDS011;7885;42.596;23.044;2023-05-07T09:06:01;10.80;;;4.77;;
15567;SDS011;7885;42.596;23.044;2023-05-07T09:08:29;8.27;;;4.67;;
15567;SDS011;7885;42.596;23.044;2023-05-07T09:10:55;6.23;;;5.07;;
15567;SDS011;7885;42.596;23.044;2023-05-07T09:13:22;6.93;;;4.30;;
15567;SDS011;7885;42.596;23.044;2023-05-07T09:15:49;6.37;;;4.23;;
15567;SDS011;7885;42.596;23.044;2023-05-07T09:18:16;7.67;;;4.60;;
15567;SDS011;7885;42.596;23.044;2023-05-07T09:20:43;7.23;;;4.60;;
15567;SDS011;7885;42.596;23.044;2023-05-07T09:23:09;5.73;;;4.30;;
15567;SDS011;7885;42.596;23.044;2023-05-07T09:25:38;5.23;;;4.07;;
15567;SDS011;7885;42.596;23.044;2023-05-07T09:28:05;5.03;;;3.73;;
15567;SDS011;7885;42.596;23.044;2023-05-07T09:30:32;5.70;;;4.00;;
15567;SDS011;7885;42.596;23.044;2023-05-07T09:33:01;4.23;;;3.83;;
15567;SDS011;7885;42.596;23.044;2023-05-07T09:35:29;4.57;;;3.57;;
15567;SDS011;7885;42.596;23.044;2023-05-07T09:37:57;3.20;;;2.90;;
15567;SDS011;7885;42.596;23.044;2023-05-07T09:40:26;3.27;;;2.97;;
15567;SDS011;7885;42.596;23.044;2023-05-07T09:42:55;3.10;;;2.80;;
15567;SDS011;7885;42.596;23.044;2023-05-07T09:45:22;4.73;;;3.40;;
15567;SDS011;7885;42.596;23.044;2023-05-07T09:47:53;3.40;;;2.80;;
15567;SDS011;7885;42.596;23.044;2023-05-07T09:50:21;3.87;;;3.10;;
15567;SDS011;7885;42.596;23.044;2023-05-07T09:52:52;3.50;;;2.90;;
15567;SDS011;7885;42.596;23.044;2023-05-07T09:55:20;2.93;;;2.73;;
15567;SDS011;7885;42.596;23.044;2023-05-07T09:57:48;4.63;;;3.43;;
15567;SDS011;7885;42.596;23.044;2023-05-07T10:00:18;4.43;;;2.97;;
15567;SDS011;7885;42.596;23.044;2023-05-07T10:02:46;4.53;;;3.20;;
15567;SDS011;7885;42.596;23.044;2023-05-07T10:05:14;3.90;;;3.10;;
15567;SDS011;7885;42.596;23.044;2023-05-07T10:07:41;3.33;;;2.97;;
15567;SDS011;7885;42.596;23.044;2023-05-07T10:10:08;3.47;;;2.90;;
15567;SDS011;7885;42.596;23.044;2023-05-07T10:15:58;3.00;;;2.80;;
15567;SDS011;7885;42.596;23.044;2023-05-07T10:18:25;4.47;;;3.10;;
15567;SDS011;7885;42.596;23.044;2023-05-07T10:20:54;3.63;;;2.90;;
15567;SDS011;7885;42.596;23.044;2023-05-07T10:23:28;4.33;;;3.10;;
15567;SDS011;7885;42.596;23.044;2023-05-07T10:25:57;5.47;;;3.20;;
15567;SDS011;7885;42.596;23.044;2023-05-07T10:28:28;4.63;;;2.80;;
15567;SDS011;7885;42.596;23.044;2023-05-07T10:31:01;4.40;;;2.33;;
15567;SDS011;7885;42.596;23.044;2023-05-07T10:33:36;3.47;;;2.63;;
15567;SDS011;7885;42.596;23.044;2023-05-07T10:36:05;3.53;;;3.07;;
15567;SDS011;7885;42.596;23.044;2023-05-07T10:38:33;3.03;;;2.83;;
15567;SDS011;7885;42.596;23.044;2023-05-07T10:41:00;4.50;;;2.90;;
15567;SDS011;7885;42.596;23.044;2023-05-07T10:43:38;4.68;;;3.33;;
15567;SDS011;7885;42.596;23.044;2023-05-07T10:46:15;5.77;;;3.20;;
15567;SDS011;7885;42.596;23.044;2023-05-07T10:51:36;3.35;;;3.03;;
15567;SDS011;7885;42.596;23.044;2023-05-07T10:57:34;3.75;;;2.88;;
15567;SDS011;7885;42.596;23.044;2023-05-07T11:00:02;5.30;;;2.80;;
15567;SDS011;7885;42.596;23.044;2023-05-07T11:05:34;5.65;;;3.03;;
15567;SDS011;7885;42.596;23.044;2023-05-07T11:08:01;3.20;;;2.90;;
15567;SDS011;7885;42.596;23.044;2023-05-07T11:10:47;3.53;;;3.05;;
15567;SDS011;7885;42.596;23.044;2023-05-07T11:13:15;4.13;;;2.90;;
15567;SDS011;7885;42.596;23.044;2023-05-07T11:15:42;3.13;;;2.83;;
15567;SDS011;7885;42.596;23.044;2023-05-07T11:18:12;3.58;;;2.90;;
15567;SDS011;7885;42.596;23.044;2023-05-07T11:20:47;3.60;;;2.60;;
15567;SDS011;7885;42.596;23.044;2023-05-07T11:26:25;2.73;;;2.53;;
15567;SDS011;7885;42.596;23.044;2023-05-07T11:28:53;3.13;;;2.90;;
15567;SDS011;7885;42.596;23.044;2023-05-07T11:31:21;4.67;;;3.30;;
15567;SDS011;7885;42.596;23.044;2023-05-07T11:33:51;3.90;;;2.87;;
15567;SDS011;7885;42.596;23.044;2023-05-07T11:36:18;3.77;;;2.83;;
15567;SDS011;7885;42.596;23.044;2023-05-07T11:38:47;3.23;;;2.87;;
15567;SDS011;7885;42.596;23.044;2023-05-07T11:41:15;5.17;;;3.17;;
15567;SDS011;7885;42.596;23.044;2023-05-07T11:43:54;8.53;;;2.90;;
15567;SDS011;7885;42.596;23.044;2023-05-07T11:46:22;5.13;;;3.60;;
15567;SDS011;7885;42.596;23.044;2023-05-07T11:48:48;4.40;;;2.80;;
15567;SDS011;7885;42.596;23.044;2023-05-07T11:51:20;5.18;;;3.03;;
15567;SDS011;7885;42.596;23.044;2023-05-07T11:53:48;2.80;;;2.60;;
15567;SDS011;7885;42.596;23.044;2023-05-07T11:56:16;4.47;;;3.10;;
15567;SDS011;7885;42.596;23.044;2023-05-07T11:58:44;2.87;;;2.63;;
15567;SDS011;7885;42.596;23.044;2023-05-07T12:01:12;5.00;;;3.00;;
15567;SDS011;7885;42.596;23.044;2023-05-07T12:03:40;4.07;;;3.00;;
15567;SDS011;7885;42.596;23.044;2023-05-07T12:06:09;3.93;;;3.23;;
15567;SDS011;7885;42.596;23.044;2023-05-07T12:08:37;4.03;;;3.10;;
15567;SDS011;7885;42.596;23.044;2023-05-07T12:11:07;5.50;;;2.90;;
15567;SDS011;7885;42.596;23.044;2023-05-07T12:13:36;4.67;;;2.73;;
15567;SDS011;7885;42.596;23.044;2023-05-07T12:16:03;3.37;;;2.93;;
15567;SDS011;7885;42.596;23.044;2023-05-07T12:18:32;3.47;;;3.17;;
15567;SDS011;7885;42.596;23.044;2023-05-07T12:21:00;4.80;;;3.47;;
15567;SDS011;7885;42.596;23.044;2023-05-07T12:23:26;3.43;;;2.70;;
15567;SDS011;7885;42.596;23.044;2023-05-07T12:28:41;3.33;;;3.03;;
15567;SDS011;7885;42.596;23.044;2023-05-07T12:31:08;3.33;;;3.03;;
15567;SDS011;7885;42.596;23.044;2023-05-07T12:33:35;4.67;;;3.13;;
15567;SDS011;7885;42.596;23.044;2023-05-07T12:36:03;3.13;;;2.77;;
15567;SDS011;7885;42.596;23.044;2023-05-07T12:38:35;4.83;;;3.00;;
15567;SDS011;7885;42.596;23.044;2023-05-07T12:41:03;4.10;;;3.20;;
15567;SDS011;7885;42.596;23.044;2023-05-07T12:43:33;3.27;;;2.97;;
15567;SDS011;7885;42.596;23.044;2023-05-07T12:46:00;4.83;;;2.90;;
15567;SDS011;7885;42.596;23.044;2023-05-07T12:48:28;3.83;;;3.00;;
15567;SDS011;7885;42.596;23.044;2023-05-07T12:50:55;6.07;;;3.30;;
15567;SDS011;7885;42.596;23.044;2023-05-07T12:53:23;6.40;;;3.10;;
15567;SDS011;7885;42.596;23.044;2023-05-07T12:55:51;4.60;;;3.37;;
15567;SDS011;7885;42.596;23.044;2023-05-07T12:58:19;3.00;;;2.80;;
15567;SDS011;7885;42.596;23.044;2023-05-07T13:00:49;3.80;;;3.40;;
15567;SDS011;7885;42.596;23.044;2023-05-07T13:03:24;3.63;;;3.00;;
15567;SDS011;7885;42.596;23.044;2023-05-07T13:05:52;3.13;;;2.93;;
15567;SDS011;7885;42.596;23.044;2023-05-07T13:08:24;2.90;;;2.60;;
15567;SDS011;7885;42.596;23.044;2023-05-07T13:10:54;2.70;;;2.50;;
15567;SDS011;7885;42.596;23.044;2023-05-07T13:13:21;3.20;;;2.90;;
15567;SDS011;7885;42.596;23.044;2023-05-07T13:15:49;3.57;;;3.27;;
15567;SDS011;7885;42.596;23.044;2023-05-07T13:18:16;5.73;;;3.30;;
15567;SDS011;7885;42.596;23.044;2023-05-07T13:20:43;6.90;;;3.50;;
15567;SDS011;7885;42.596;23.044;2023-05-07T13:23:10;3.30;;;3.00;;
15567;SDS011;7885;42.596;23.044;2023-05-07T13:25:36;5.63;;;3.50;;
15567;SDS011;7885;42.596;23.044;2023-05-07T13:28:03;7.37;;;3.27;;
15567;SDS011;7885;42.596;23.044;2023-05-07T13:30:30;6.97;;;3.17;;
15567;SDS011;7885;42.596;23.044;2023-05-07T13:32:58;6.83;;;3.10;;
15567;SDS011;7885;42.596;23.044;2023-05-07T13:35:25;5.97;;;2.90;;
15567;SDS011;7885;42.596;23.044;2023-05-07T13:37:52;3.20;;;2.90;;
15567;SDS011;7885;42.596;23.044;2023-05-07T13:40:19;4.50;;;2.73;;
15567;SDS011;7885;42.596;23.044;2023-05-07T13:42:46;3.23;;;2.90;;
15567;SDS011;7885;42.596;23.044;2023-05-07T13:45:13;3.75;;;2.70;;
15567;SDS011;7885;42.596;23.044;2023-05-07T13:47:40;2.97;;;2.67;;
15567;SDS011;7885;42.596;23.044;2023-05-07T13:50:09;3.92;;;3.33;;
15567;SDS011;7885;42.596;23.044;2023-05-07T13:52:38;6.75;;;2.75;;
15567;SDS011;7885;42.596;23.044;2023-05-07T13:55:08;3.13;;;2.85;;
15567;SDS011;7885;42.596;23.044;2023-05-07T13:57:35;4.25;;;3.10;;
15567;SDS011;7885;42.596;23.044;2023-05-07T14:00:02;3.27;;;2.87;;
15567;SDS011;7885;42.596;23.044;2023-05-07T14:02:30;3.37;;;3.00;;
15567;SDS011;7885;42.596;23.044;2023-05-07T14:04:56;4.27;;;2.73;;
15567;SDS011;7885;42.596;23.044;2023-05-07T14:07:24;3.53;;;3.17;;
15567;SDS011;7885;42.596;23.044;2023-05-07T14:09:51;4.83;;;3.13;;
15567;SDS011;7885;42.596;23.044;2023-05-07T14:12:18;4.43;;;3.50;;
15567;SDS011;7885;42.596;23.044;2023-05-07T14:14:45;3.20;;;2.80;;
15567;SDS011;7885;42.596;23.044;2023-05-07T14:17:12;3.13;;;2.87;;
15567;SDS011;7885;42.596;23.044;2023-05-07T14:19:38;3.23;;;3.00;;
15567;SDS011;7885;42.596;23.044;2023-05-07T14:22:05;3.10;;;2.80;;
15567;SDS011;7885;42.596;23.044;2023-05-07T14:24:33;3.50;;;3.03;;
15567;SDS011;7885;42.596;23.044;2023-05-07T14:27:00;5.50;;;3.40;;
15567;SDS011;7885;42.596;23.044;2023-05-07T14:29:27;4.53;;;3.13;;
15567;SDS011;7885;42.596;23.044;2023-05-07T14:31:54;3.50;;;3.17;;
15567;SDS011;7885;42.596;23.044;2023-05-07T14:34:20;6.27;;;3.13;;
15567;SDS011;7885;42.596;23.044;2023-05-07T14:36:47;4.90;;;2.70;;
15567;SDS011;7885;42.596;23.044;2023-05-07T14:39:14;5.57;;;3.33;;
15567;SDS011;7885;42.596;23.044;2023-05-07T14:41:42;5.10;;;4.60;;
15567;SDS011;7885;42.596;23.044;2023-05-07T14:44:09;4.43;;;3.50;;
15567;SDS011;7885;42.596;23.044;2023-05-07T14:46:36;5.23;;;3.10;;
15567;SDS011;7885;42.596;23.044;2023-05-07T14:49:02;5.30;;;3.07;;
15567;SDS011;7885;42.596;23.044;2023-05-07T14:51:29;5.77;;;3.10;;
15567;SDS011;7885;42.596;23.044;2023-05-07T14:53:56;5.93;;;3.13;;
15567;SDS011;7885;42.596;23.044;2023-05-07T14:56:23;6.77;;;3.20;;
15567;SDS011;7885;42.596;23.044;2023-05-07T14:58:51;8.20;;;2.97;;
15567;SDS011;7885;42.596;23.044;2023-05-07T15:01:19;7.47;;;3.30;;